Time;durP1;ratioP1;P1;durP2;ratioP2;P2;SDS_P1;SDS_P2;PMS_P1;PMS_P2;Temp;Humidity;BMP_temperature;BMP_pressure;BME280_temperature;BME280_humidity;BME280_pressure;Samples;Min_cycle;Max_cycle;Signal;HPM_P1;HPM_P2
2022/01/21 00:00:26;;;;;;;20.10;2.63;;;2.80;99.90;;;;;;5078761;28;20040;-72
2022/01/21 00:02:51;;;;;;;18.85;3.20;;;2.80;99.90;;;;;;5078029;28;20071;-72
2022/01/21 00:05:18;;;;;;;16.15;2.97;;;2.80;99.90;;;;;;5078051;28;20158;-72
2022/01/21 00:07:44;;;;;;;19.63;2.53;;;2.80;99.90;;;;;;5061411;28;20040;-72
2022/01/21 00:10:11;;;;;;;21.88;2.97;;;2.90;99.90;;;;;;5078546;28;20450;-72
2022/01/21 00:12:37;;;;;;;19.88;3.17;;;2.90;99.90;;;;;;5078324;28;20055;-72
2022/01/21 00:15:08;;;;;;;17.27;3.47;;;3.00;99.90;;;;;;5078471;28;20078;-72
2022/01/21 00:17:34;;;;;;;17.38;2.30;;;2.90;99.90;;;;;;5078523;28;20044;-72
2022/01/21 00:30:56;;;;;;;20.77;2.97;;;3.10;99.90;;;;;;5078465;28;20043;-72
2022/01/21 00:33:22;;;;;;;19.77;2.83;;;3.10;99.90;;;;;;5078198;28;20122;-72
2022/01/21 00:35:47;;;;;;;15.98;2.92;;;3.10;99.90;;;;;;5078087;28;20047;-72
2022/01/21 00:38:14;;;;;;;17.33;2.60;;;3.20;99.90;;;;;;5078236;28;20035;-72
2022/01/21 00:40:40;;;;;;;28.05;2.65;;;3.20;99.90;;;;;;5077664;28;20505;-72
2022/01/21 00:45:31;;;;;;;12.93;2.30;;;3.10;99.90;;;;;;5077869;28;20092;-72
2022/01/21 00:47:57;;;;;;;18.85;2.88;;;3.20;99.90;;;;;;5077466;28;20040;-72
2022/01/21 00:50:22;;;;;;;14.35;2.83;;;3.20;99.90;;;;;;5077254;28;20036;-72
2022/01/21 00:52:48;;;;;;;18.58;2.47;;;3.20;99.90;;;;;;5077007;28;20054;-72
2022/01/21 00:55:14;;;;;;;16.80;2.38;;;3.20;99.90;;;;;;5060858;28;20042;-72
2022/01/21 00:57:39;;;;;;;13.88;2.25;;;3.10;99.90;;;;;;5076977;28;20489;-72
2022/01/21 01:00:07;;;;;;;19.02;2.40;;;3.20;99.90;;;;;;5076551;28;20512;-72
2022/01/21 01:02:33;;;;;;;17.27;2.40;;;3.20;99.90;;;;;;5076482;28;20081;-72
2022/01/21 01:04:58;;;;;;;12.77;2.38;;;3.20;99.90;;;;;;5076640;28;20044;-72
2022/01/21 01:07:24;;;;;;;12.63;2.60;;;3.20;99.90;;;;;;5076715;28;20415;-72
2022/01/21 01:09:53;;;;;;;10.68;2.05;;;3.20;99.90;;;;;;5076506;28;20539;-72
2022/01/21 01:12:33;;;;;;;14.68;2.10;;;3.20;99.90;;;;;;5076296;28;20118;-72
2022/01/21 01:20:27;;;;;;;14.40;2.03;;;3.10;99.90;;;;;;5076222;28;20044;-72
2022/01/21 01:28:03;;;;;;;12.27;2.00;;;3.10;99.90;;;;;;5076113;28;20040;-72
2022/01/21 01:30:31;;;;;;;13.75;1.92;;;3.10;99.90;;;;;;5076416;28;20547;-72
2022/01/21 01:33:00;;;;;;;15.75;2.00;;;3.10;99.90;;;;;;5076150;28;20047;-72
2022/01/21 01:35:30;;;;;;;13.27;2.20;;;3.10;99.90;;;;;;5059375;28;20040;-72
2022/01/21 01:38:24;;;;;;;11.88;1.90;;;3.10;99.90;;;;;;5075782;28;20050;-72
2022/01/21 01:40:58;;;;;;;10.57;1.50;;;3.10;99.90;;;;;;5076141;28;20046;-72
2022/01/21 01:51:25;;;;;;;13.02;2.60;;;3.10;99.90;;;;;;5076184;28;20069;-72
2022/01/21 01:54:06;;;;;;;17.13;2.25;;;3.10;99.90;;;;;;5076314;28;20040;-73
2022/01/21 01:56:35;;;;;;;10.70;1.83;;;3.10;99.90;;;;;;5076045;28;20086;-72
2022/01/21 01:59:01;;;;;;;12.02;2.00;;;3.10;99.90;;;;;;5076343;28;20066;-71
2022/01/21 02:01:27;;;;;;;12.13;2.15;;;3.10;99.90;;;;;;5059508;28;20040;-72
2022/01/21 02:03:52;;;;;;;13.45;2.03;;;3.10;99.90;;;;;;5076483;28;20036;-72
2022/01/21 02:06:18;;;;;;;9.43;1.45;;;3.10;99.90;;;;;;5075481;28;20036;-72
2022/01/21 02:08:44;;;;;;;9.63;1.40;;;3.10;99.90;;;;;;5059252;28;20036;-72
2022/01/21 02:11:10;;;;;;;10.40;1.60;;;3.10;99.90;;;;;;5075969;28;20067;-72
2022/01/21 02:13:42;;;;;;;7.97;1.38;;;3.20;99.90;;;;;;5076025;28;20225;-72
2022/01/21 02:21:43;;;;;;;11.85;1.10;;;3.10;99.90;;;;;;5075689;28;20040;-72
2022/01/21 02:24:20;;;;;;;8.93;1.60;;;3.10;99.90;;;;;;5075793;28;20123;-72
2022/01/21 02:26:51;;;;;;;9.73;1.73;;;3.00;99.90;;;;;;5075580;28;20040;-72
2022/01/21 02:29:27;;;;;;;9.13;1.50;;;3.00;99.90;;;;;;5075575;28;20121;-72
2022/01/21 02:31:54;;;;;;;8.65;1.40;;;3.00;99.90;;;;;;5075751;28;20044;-72
2022/01/21 02:34:20;;;;;;;9.80;1.70;;;3.00;99.90;;;;;;5058924;28;20506;-72
2022/01/21 02:36:45;;;;;;;8.75;1.40;;;3.00;99.90;;;;;;5075661;28;20036;-72
2022/01/21 02:39:11;;;;;;;10.00;1.40;;;3.10;99.90;;;;;;5059143;28;20085;-72
2022/01/21 02:41:36;;;;;;;12.95;1.90;;;3.10;99.90;;;;;;5076012;28;20043;-72
2022/01/21 02:44:02;;;;;;;9.65;1.50;;;3.00;99.90;;;;;;5076116;28;20034;-72
2022/01/21 02:46:28;;;;;;;7.63;1.73;;;3.00;99.90;;;;;;5075959;28;20044;-72
2022/01/21 02:48:54;;;;;;;9.95;1.40;;;3.10;99.90;;;;;;5075752;28;20074;-72
2022/01/21 02:51:20;;;;;;;5.65;1.13;;;3.10;99.90;;;;;;5058926;28;20044;-72
2022/01/21 02:56:17;;;;;;;11.38;1.60;;;3.10;99.90;;;;;;5075516;28;20113;-72
2022/01/21 02:58:44;;;;;;;10.18;1.65;;;3.10;99.90;;;;;;5075433;28;20036;-72
2022/01/21 03:01:10;;;;;;;11.35;1.55;;;3.00;99.90;;;;;;5058575;28;20119;-72
2022/01/21 03:03:36;;;;;;;9.82;1.40;;;3.00;99.90;;;;;;5075424;28;20082;-72
2022/01/21 03:06:02;;;;;;;6.63;1.55;;;3.00;99.90;;;;;;5075332;28;20068;-72
2022/01/21 03:08:29;;;;;;;11.10;1.85;;;3.00;99.90;;;;;;5075287;28;20047;-72
2022/01/21 03:10:55;;;;;;;11.52;1.58;;;3.00;99.90;;;;;;5075647;28;20086;-72
2022/01/21 03:13:22;;;;;;;7.57;1.40;;;3.00;99.90;;;;;;5075011;28;20447;-72
2022/01/21 03:15:49;;;;;;;10.60;1.40;;;3.00;99.90;;;;;;5074570;28;20048;-72
2022/01/21 03:18:15;;;;;;;6.03;1.17;;;3.00;99.90;;;;;;5074657;28;20064;-72
2022/01/21 03:20:42;;;;;;;13.32;1.90;;;3.00;99.90;;;;;;5078272;28;20032;-72
2022/01/21 03:23:10;;;;;;;11.70;2.08;;;3.00;99.90;;;;;;5078328;28;20043;-71
2022/01/21 03:25:36;;;;;;;12.65;1.60;;;3.10;99.90;;;;;;5078286;28;20504;-71
2022/01/21 03:28:01;;;;;;;10.02;1.40;;;3.00;99.90;;;;;;5078196;28;20123;-71
2022/01/21 03:30:27;;;;;;;6.65;1.40;;;3.00;99.90;;;;;;5078240;28;20047;-71
2022/01/21 03:32:52;;;;;;;7.10;1.27;;;3.00;99.90;;;;;;5078178;28;20071;-71
2022/01/21 03:35:18;;;;;;;6.75;1.58;;;3.10;99.90;;;;;;5078431;28;20086;-71
2022/01/21 03:37:44;;;;;;;7.28;1.15;;;3.00;99.90;;;;;;5096082;28;20071;-71
2022/01/21 03:40:10;;;;;;;7.15;1.08;;;3.00;99.90;;;;;;5077936;28;20064;-71
2022/01/21 03:42:36;;;;;;;8.82;1.17;;;3.00;99.90;;;;;;5078315;28;20040;-71
2022/01/21 03:45:03;;;;;;;8.07;1.33;;;3.00;99.90;;;;;;5077966;28;20035;-71
2022/01/21 03:47:28;;;;;;;10.25;1.27;;;2.90;99.90;;;;;;5078109;28;20071;-71
2022/01/21 03:49:58;;;;;;;6.97;1.20;;;2.90;99.90;;;;;;5078205;28;20481;-71
2022/01/21 03:52:23;;;;;;;5.35;1.17;;;2.80;99.90;;;;;;5077856;28;20047;-71
2022/01/21 03:54:49;;;;;;;7.78;1.48;;;2.80;99.90;;;;;;5078061;28;20032;-71
2022/01/21 03:57:15;;;;;;;9.35;1.58;;;2.80;99.90;;;;;;5077674;28;20040;-71
2022/01/21 03:59:41;;;;;;;9.52;1.30;;;2.80;99.90;;;;;;5077701;28;20042;-71
2022/01/21 04:02:07;;;;;;;10.90;1.55;;;2.80;99.90;;;;;;5077505;28;20124;-71
2022/01/21 04:04:33;;;;;;;8.23;1.13;;;2.80;99.90;;;;;;5077590;28;20068;-71
2022/01/21 04:06:59;;;;;;;8.85;1.48;;;2.80;99.90;;;;;;5077686;28;20052;-71
2022/01/21 04:09:25;;;;;;;15.57;2.00;;;2.80;99.90;;;;;;5077513;28;20046;-71
2022/01/21 04:11:51;;;;;;;11.02;1.42;;;2.80;99.90;;;;;;5077758;28;20123;-71
2022/01/21 04:14:17;;;;;;;11.68;1.50;;;2.80;99.90;;;;;;5077412;28;20044;-71
2022/01/21 04:16:43;;;;;;;11.57;1.60;;;2.80;99.90;;;;;;5077304;28;20066;-71
2022/01/21 04:19:08;;;;;;;9.80;1.80;;;2.70;99.90;;;;;;5077373;28;20044;-71
2022/01/21 04:21:34;;;;;;;13.45;2.03;;;2.70;99.90;;;;;;5077357;28;20051;-71
2022/01/21 04:24:01;;;;;;;10.15;1.35;;;2.60;99.90;;;;;;5077525;28;20089;-71
2022/01/21 04:26:27;;;;;;;14.68;1.60;;;2.60;99.90;;;;;;5077404;28;20117;-71
2022/01/21 04:28:52;;;;;;;11.93;2.03;;;2.60;99.90;;;;;;5077213;28;20498;-71
2022/01/21 04:31:18;;;;;;;16.13;1.92;;;2.60;99.90;;;;;;5076681;28;20463;-71
2022/01/21 04:33:43;;;;;;;12.25;2.10;;;2.50;99.90;;;;;;5077308;28;20127;-71
2022/01/21 04:36:09;;;;;;;10.80;1.70;;;2.50;99.90;;;;;;5076875;28;20394;-71
2022/01/21 04:38:36;;;;;;;16.38;1.77;;;2.40;99.90;;;;;;5077547;28;20044;-69
2022/01/21 04:49:07;;;;;;;15.50;1.90;;;2.30;99.90;;;;;;5076753;28;20055;-69
2022/01/21 04:51:40;;;;;;;15.00;3.55;;;2.30;99.90;;;;;;5076708;28;20040;-69
2022/01/21 04:54:05;;;;;;;16.83;2.58;;;2.30;99.90;;;;;;5076720;28;20117;-69
2022/01/21 04:56:31;;;;;;;15.40;2.53;;;2.30;99.90;;;;;;5060118;28;20078;-69
2022/01/21 04:58:57;;;;;;;13.88;2.00;;;2.30;99.90;;;;;;5076597;28;20414;-69
2022/01/21 05:01:23;;;;;;;13.45;2.53;;;2.30;99.90;;;;;;5076523;28;20125;-69
2022/01/21 05:03:49;;;;;;;14.30;2.10;;;2.30;99.90;;;;;;5076717;28;20452;-69
2022/01/21 05:06:15;;;;;;;11.82;2.03;;;2.40;99.90;;;;;;5076228;28;20460;-69
2022/01/21 05:08:52;;;;;;;12.38;2.08;;;2.40;99.90;;;;;;5059705;28;20036;-69
2022/01/21 05:11:18;;;;;;;13.55;2.50;;;2.40;99.90;;;;;;5076415;28;20412;-69
2022/01/21 05:13:53;;;;;;;19.08;2.72;;;2.40;99.90;;;;;;5076229;28;20091;-69
2022/01/21 05:18:55;;;;;;;16.75;2.65;;;2.50;99.90;;;;;;5076143;28;20416;-69
2022/01/21 05:21:20;;;;;;;13.38;2.70;;;2.50;99.90;;;;;;5076010;28;20044;-69
2022/01/21 05:23:46;;;;;;;17.23;2.28;;;2.50;99.90;;;;;;5076068;28;20126;-69
2022/01/21 05:26:12;;;;;;;19.73;1.92;;;2.50;99.90;;;;;;5075940;28;20036;-70
2022/01/21 05:28:38;;;;;;;15.30;2.05;;;2.60;99.90;;;;;;5075947;28;20093;-69
2022/01/21 05:31:04;;;;;;;11.57;1.65;;;2.60;99.90;;;;;;5075973;28;20043;-69
2022/01/21 05:33:29;;;;;;;15.40;2.15;;;2.60;99.90;;;;;;5075874;28;20413;-69
2022/01/21 05:35:55;;;;;;;13.45;2.10;;;2.60;99.90;;;;;;5075865;28;20039;-70
2022/01/21 05:38:21;;;;;;;16.15;2.38;;;2.50;99.90;;;;;;5075894;28;20520;-69
2022/01/21 05:40:47;;;;;;;14.88;2.10;;;2.50;99.90;;;;;;5075541;28;20040;-70
2022/01/21 05:43:13;;;;;;;16.20;2.28;;;2.50;99.90;;;;;;5075497;28;20047;-69
2022/01/21 05:48:24;;;;;;;14.45;2.03;;;2.50;99.90;;;;;;5075634;28;20040;-69
2022/01/21 05:50:49;;;;;;;17.60;2.28;;;2.50;99.90;;;;;;5075529;28;20044;-69
2022/01/21 05:53:15;;;;;;;15.43;2.55;;;2.50;99.90;;;;;;5058774;28;20044;-69
2022/01/21 05:55:42;;;;;;;8.50;1.45;;;2.50;99.90;;;;;;5075514;28;20097;-69
2022/01/21 05:58:10;;;;;;;15.50;1.90;;;2.60;99.90;;;;;;5075416;28;20035;-69
2022/01/21 06:00:36;;;;;;;16.15;1.90;;;2.60;99.90;;;;;;5075357;28;20080;-69
2022/01/21 06:03:03;;;;;;;14.85;1.80;;;2.60;99.90;;;;;;5075573;28;20142;-69
2022/01/21 06:05:32;;;;;;;15.30;1.77;;;2.60;99.90;;;;;;5058595;28;20050;-69
2022/01/21 06:07:59;;;;;;;12.13;1.80;;;2.70;99.90;;;;;;5075265;28;20040;-69
2022/01/21 06:10:25;;;;;;;14.38;2.20;;;2.70;99.90;;;;;;5075287;28;20040;-70
2022/01/21 06:12:50;;;;;;;10.95;1.83;;;2.70;99.90;;;;;;5075542;28;20039;-70
2022/01/21 06:15:16;;;;;;;13.23;1.77;;;2.70;99.90;;;;;;5075209;28;20040;-70
2022/01/21 06:17:41;;;;;;;14.00;1.80;;;2.70;99.90;;;;;;5075181;28;20063;-70
2022/01/21 06:20:08;;;;;;;10.13;1.38;;;2.70;99.90;;;;;;5075112;28;20043;-70
2022/01/21 06:22:33;;;;;;;16.13;1.88;;;2.80;99.90;;;;;;5075209;28;20383;-70
2022/01/21 06:24:59;;;;;;;17.67;2.10;;;2.70;99.90;;;;;;5075399;28;20039;-70
2022/01/21 06:27:26;;;;;;;11.73;1.67;;;2.80;99.90;;;;;;5075095;28;20548;-70
2022/01/21 06:29:52;;;;;;;20.33;2.22;;;2.70;99.90;;;;;;5075436;28;20063;-69
2022/01/21 06:32:18;;;;;;;12.88;2.00;;;2.80;99.90;;;;;;5075044;28;20068;-69
2022/01/21 06:34:43;;;;;;;15.85;2.20;;;2.70;99.90;;;;;;5075315;28;20067;-69
2022/01/21 06:37:09;;;;;;;15.32;2.15;;;2.80;99.90;;;;;;5074980;28;20044;-70
2022/01/21 06:39:34;;;;;;;10.18;1.80;;;2.80;99.90;;;;;;5075315;28;20032;-70
2022/01/21 06:42:00;;;;;;;13.48;1.58;;;2.80;99.90;;;;;;5074939;28;20494;-69
2022/01/21 06:44:26;;;;;;;13.32;1.73;;;2.80;99.90;;;;;;5075205;28;20054;-70
2022/01/21 06:46:52;;;;;;;21.17;3.00;;;2.80;99.90;;;;;;5074929;28;20431;-69
2022/01/21 06:49:17;;;;;;;15.63;2.00;;;2.80;99.90;;;;;;5075196;28;20080;-69
2022/01/21 06:51:43;;;;;;;13.52;2.33;;;2.80;99.90;;;;;;5074963;28;20519;-70
2022/01/21 06:54:09;;;;;;;16.50;1.88;;;2.90;99.90;;;;;;5078040;28;20044;-70
2022/01/21 06:56:34;;;;;;;9.95;1.52;;;2.90;99.90;;;;;;5078892;28;20044;-70
2022/01/21 06:59:00;;;;;;;14.13;2.08;;;2.80;99.90;;;;;;5078892;28;20046;-70
2022/01/21 07:01:25;;;;;;;15.63;1.95;;;2.80;99.90;;;;;;5078808;28;20044;-70
2022/01/21 07:03:51;;;;;;;12.88;2.28;;;2.80;99.90;;;;;;5078809;28;20455;-70
2022/01/21 07:06:17;;;;;;;15.20;1.80;;;2.80;99.90;;;;;;5078655;28;20036;-70
2022/01/21 07:08:42;;;;;;;10.15;2.40;;;2.70;99.90;;;;;;5078954;28;20036;-70
2022/01/21 07:11:08;;;;;;;13.80;2.40;;;2.70;99.90;;;;;;5078664;28;20507;-70
2022/01/21 07:13:34;;;;;;;17.27;2.70;;;2.70;99.90;;;;;;5078610;28;20040;-70
2022/01/21 07:16:00;;;;;;;13.07;1.83;;;2.60;99.90;;;;;;5078706;28;20040;-70
2022/01/21 07:18:27;;;;;;;15.77;3.35;;;2.60;99.90;;;;;;5078747;28;20397;-70
2022/01/21 07:20:52;;;;;;;14.70;1.90;;;2.60;99.90;;;;;;5078292;28;20059;-70
2022/01/21 07:23:18;;;;;;;22.88;2.45;;;2.60;99.90;;;;;;5078389;28;20118;-70
2022/01/21 07:25:44;;;;;;;15.52;1.85;;;2.60;99.90;;;;;;5078377;28;20040;-69
2022/01/21 07:28:09;;;;;;;10.52;1.70;;;2.50;99.90;;;;;;5078217;28;20036;-70
2022/01/21 07:30:35;;;;;;;13.68;1.60;;;2.60;99.90;;;;;;5061845;28;20035;-70
2022/01/21 07:33:00;;;;;;;10.20;2.05;;;2.50;99.90;;;;;;5078256;28;20052;-69
2022/01/21 07:35:26;;;;;;;11.35;1.60;;;2.50;99.90;;;;;;5078177;28;20076;-69
2022/01/21 07:37:52;;;;;;;13.63;1.52;;;2.50;99.90;;;;;;5061375;28;20402;-70
2022/01/21 07:40:17;;;;;;;14.00;2.10;;;2.50;99.90;;;;;;5078011;28;20456;-69
2022/01/21 07:42:43;;;;;;;12.55;1.85;;;2.50;99.90;;;;;;5078078;28;20121;-69
2022/01/21 07:45:09;;;;;;;16.13;1.95;;;2.50;99.90;;;;;;5078021;28;20152;-69
2022/01/21 07:47:34;;;;;;;9.65;1.85;;;2.50;99.90;;;;;;5078135;28;20058;-69
2022/01/21 07:50:00;;;;;;;12.98;1.90;;;2.60;99.90;;;;;;5077989;28;20505;-70
2022/01/21 07:52:26;;;;;;;15.70;2.40;;;2.60;99.90;;;;;;5077879;28;20116;-70
2022/01/21 07:54:51;;;;;;;17.15;2.13;;;2.60;99.90;;;;;;5077861;28;20166;-69
2022/01/21 07:57:17;;;;;;;17.25;2.47;;;2.60;99.90;;;;;;5077716;28;20032;-69
2022/01/21 07:59:42;;;;;;;14.82;2.22;;;2.60;99.90;;;;;;5077713;28;20089;-69
2022/01/21 08:02:09;;;;;;;12.15;2.38;;;2.60;99.90;;;;;;5077596;28;20036;-69
2022/01/21 08:04:34;;;;;;;12.75;1.60;;;2.60;99.90;;;;;;5076717;28;20114;-69
2022/01/21 08:07:00;;;;;;;9.25;1.75;;;2.70;99.90;;;;;;5077556;28;20077;-69
2022/01/21 08:09:25;;;;;;;10.13;1.50;;;2.70;99.90;;;;;;5077603;28;20032;-69
2022/01/21 08:11:53;;;;;;;19.90;2.20;;;2.80;99.90;;;;;;5077533;28;20044;-70
2022/01/21 08:14:19;;;;;;;15.48;2.33;;;2.80;99.90;;;;;;5077698;28;20401;-70
2022/01/21 08:16:44;;;;;;;11.88;1.95;;;2.80;99.90;;;;;;5077326;28;20570;-70
2022/01/21 08:19:10;;;;;;;11.80;1.73;;;2.80;99.90;;;;;;5077401;28;20072;-70
2022/01/21 08:21:35;;;;;;;14.35;2.05;;;2.80;99.90;;;;;;5077386;28;20083;-70
2022/01/21 08:24:01;;;;;;;9.23;1.88;;;2.80;99.90;;;;;;5077297;28;20460;-70
2022/01/21 08:26:28;;;;;;;12.40;1.65;;;2.80;99.90;;;;;;5077101;28;20040;-70
2022/01/21 08:28:55;;;;;;;12.65;2.10;;;2.80;99.90;;;;;;5077101;28;20040;-70
2022/01/21 08:31:21;;;;;;;10.50;1.90;;;2.80;99.90;;;;;;5077089;28;20047;-70
2022/01/21 08:33:46;;;;;;;9.75;1.80;;;2.80;99.90;;;;;;5077410;28;20044;-70
2022/01/21 08:36:12;;;;;;;11.60;1.88;;;2.80;99.90;;;;;;5076944;28;20039;-70
2022/01/21 08:38:38;;;;;;;12.90;1.98;;;2.80;99.90;;;;;;5077061;28;20043;-70
2022/01/21 08:41:04;;;;;;;13.88;1.92;;;2.90;99.90;;;;;;5076926;28;20537;-70
2022/01/21 08:43:30;;;;;;;13.07;1.77;;;2.90;99.90;;;;;;5076917;28;20074;-70
2022/01/21 08:45:56;;;;;;;21.35;2.33;;;2.90;99.90;;;;;;5076802;28;20074;-70
2022/01/21 08:48:21;;;;;;;14.82;1.90;;;2.90;99.90;;;;;;5060372;28;20051;-70
2022/01/21 08:50:47;;;;;;;14.18;2.10;;;3.00;99.90;;;;;;5076719;28;20040;-69
2022/01/21 08:55:57;;;;;;;16.70;2.22;;;3.00;99.90;;;;;;5076586;28;20040;-70
2022/01/21 08:58:24;;;;;;;15.60;1.98;;;3.10;99.90;;;;;;5076536;28;20047;-70
2022/01/21 09:00:50;;;;;;;10.60;1.83;;;3.20;99.90;;;;;;5076495;28;20044;-70
2022/01/21 09:03:15;;;;;;;17.30;1.90;;;3.20;99.90;;;;;;5076515;28;20040;-70
2022/01/21 09:05:48;;;;;;;18.45;2.35;;;3.30;99.90;;;;;;5076723;28;20036;-71
2022/01/21 09:08:23;;;;;;;17.67;2.13;;;3.30;99.90;;;;;;5076422;28;20050;-70
2022/01/21 09:10:49;;;;;;;12.52;1.83;;;3.30;99.90;;;;;;5076435;28;20048;-70
2022/01/21 09:13:14;;;;;;;14.40;2.25;;;3.40;99.90;;;;;;5076229;28;20036;-71
2022/01/21 09:15:40;;;;;;;21.98;2.55;;;3.50;99.90;;;;;;5076241;28;20114;-69
2022/01/21 09:18:06;;;;;;;17.90;2.35;;;3.50;99.90;;;;;;5076091;28;20076;-70
2022/01/21 09:20:34;;;;;;;18.58;2.67;;;3.60;99.90;;;;;;5076033;28;20050;-69
2022/01/21 09:23:00;;;;;;;19.42;3.05;;;3.60;99.90;;;;;;5076312;28;20052;-69
2022/01/21 09:25:25;;;;;;;16.08;2.33;;;3.70;99.90;;;;;;5076339;28;20040;-69
2022/01/21 09:27:51;;;;;;;20.77;2.83;;;3.70;99.90;;;;;;5076030;28;20040;-68
2022/01/21 09:30:17;;;;;;;19.95;2.47;;;3.80;99.90;;;;;;5076013;28;20075;-69
2022/01/21 09:32:43;;;;;;;21.40;3.35;;;3.80;99.90;;;;;;5059250;28;20067;-69
2022/01/21 09:35:10;;;;;;;18.65;2.45;;;3.90;99.90;;;;;;5075960;28;20101;-69
2022/01/21 09:37:36;;;;;;;14.10;2.42;;;3.90;99.90;;;;;;5075893;28;20055;-69
2022/01/21 09:40:04;;;;;;;12.57;2.90;;;3.90;99.90;;;;;;5075721;28;20047;-69
2022/01/21 09:42:33;;;;;;;19.30;2.40;;;4.00;99.90;;;;;;5075549;28;20093;-69
2022/01/21 09:44:59;;;;;;;24.02;3.47;;;4.00;99.90;;;;;;5075697;28;20036;-70
2022/01/21 09:47:27;;;;;;;15.63;2.60;;;4.10;99.90;;;;;;5075570;28;20097;-70
2022/01/21 09:49:54;;;;;;;14.70;2.67;;;4.10;99.90;;;;;;5075646;28;20040;-70
2022/01/21 09:52:21;;;;;;;20.42;2.88;;;4.20;99.90;;;;;;5058865;28;20409;-70
2022/01/21 09:54:48;;;;;;;13.70;2.85;;;4.20;99.90;;;;;;5075504;28;20516;-70
2022/01/21 09:57:22;;;;;;;12.75;2.22;;;4.30;99.90;;;;;;5075365;28;20055;-70
2022/01/21 09:59:49;;;;;;;16.83;2.10;;;4.40;99.90;;;;;;5075444;28;20382;-70
2022/01/21 10:02:18;;;;;;;15.82;2.85;;;4.40;99.90;;;;;;5075435;28;20425;-70
2022/01/21 10:04:44;;;;;;;14.93;1.98;;;4.50;99.90;;;;;;5058930;28;20044;-70
2022/01/21 10:07:16;;;;;;;17.08;2.40;;;4.60;99.90;;;;;;5075712;28;20051;-70
2022/01/21 10:09:46;;;;;;;12.88;2.45;;;4.70;99.90;;;;;;5075335;28;20119;-70
2022/01/21 10:12:13;;;;;;;15.48;1.85;;;4.70;99.90;;;;;;5075565;28;20086;-70
2022/01/21 10:14:40;;;;;;;15.35;2.15;;;4.70;99.90;;;;;;5075295;28;20051;-71
2022/01/21 10:17:06;;;;;;;13.13;2.58;;;4.80;99.90;;;;;;5075119;28;20044;-71
2022/01/21 10:19:33;;;;;;;17.38;2.42;;;4.80;99.90;;;;;;5075195;28;20081;-71
2022/01/21 10:22:10;;;;;;;16.00;2.08;;;4.80;99.90;;;;;;5075155;28;20075;-70
2022/01/21 10:25:01;;;;;;;16.60;2.10;;;4.90;99.90;;;;;;5075453;28;20089;-70
2022/01/21 10:27:29;;;;;;;16.17;2.38;;;4.90;99.90;;;;;;5074675;28;20036;-71
2022/01/21 10:29:55;;;;;;;17.63;2.47;;;4.90;99.90;;;;;;5075074;28;20543;-70
2022/01/21 10:32:34;;;;;;;14.70;2.10;;;4.90;99.90;;;;;;5075050;28;20048;-70
2022/01/21 10:35:00;;;;;;;13.65;2.42;;;5.00;99.90;;;;;;5075310;28;20109;-70
2022/01/21 10:37:35;;;;;;;12.68;2.55;;;5.00;99.90;;;;;;5075273;28;20501;-72
2022/01/21 10:40:05;;;;;;;12.85;2.13;;;5.20;99.90;;;;;;5075049;28;20085;-72
2022/01/21 10:42:31;;;;;;;14.02;2.30;;;5.30;99.90;;;;;;5074958;28;20072;-72
2022/01/21 10:44:59;;;;;;;10.80;2.17;;;5.50;99.90;;;;;;5074966;28;20032;-72
2022/01/21 10:47:36;;;;;;;14.80;2.83;;;5.60;99.90;;;;;;5074861;28;20067;-72
2022/01/21 10:50:31;;;;;;;16.20;2.60;;;5.70;99.90;;;;;;5075081;28;20114;-72
2022/01/21 10:52:57;;;;;;;18.90;2.85;;;5.80;99.90;;;;;;5057730;28;20505;-72
2022/01/21 10:55:38;;;;;;;14.80;2.50;;;5.70;99.90;;;;;;5074901;28;20075;-72
2022/01/21 10:58:11;;;;;;;15.60;2.88;;;5.80;99.90;;;;;;5058082;28;20039;-72
2022/01/21 11:00:55;;;;;;;16.08;2.90;;;5.70;99.90;;;;;;5074805;28;20089;-72
2022/01/21 11:03:21;;;;;;;34.53;8.50;;;5.70;99.90;;;;;;5074829;28;20047;-73
2022/01/21 11:05:48;;;;;;;22.50;3.45;;;5.60;99.90;;;;;;5075083;28;20036;-73
2022/01/21 11:08:15;;;;;;;24.35;3.92;;;5.60;99.90;;;;;;5074715;28;20498;-73
2022/01/21 11:10:44;;;;;;;16.50;2.80;;;5.60;99.90;;;;;;5074725;28;20040;-73
2022/01/21 11:13:13;;;;;;;20.20;2.95;;;5.60;99.90;;;;;;5074717;28;20048;-72
2022/01/21 11:15:47;;;;;;;19.70;3.40;;;5.70;99.90;;;;;;5074658;28;20044;-72
2022/01/21 11:18:16;;;;;;;16.25;3.00;;;5.70;99.90;;;;;;5074699;28;20040;-72
2022/01/21 11:20:46;;;;;;;19.83;3.10;;;5.80;99.90;;;;;;5074597;28;20040;-72
2022/01/21 11:23:12;;;;;;;20.27;3.45;;;5.80;99.90;;;;;;5074676;28;20157;-72
2022/01/21 11:25:44;;;;;;;21.00;2.50;;;5.80;99.90;;;;;;5074873;28;20036;-72
2022/01/21 11:28:11;;;;;;;28.65;3.25;;;5.80;99.90;;;;;;5074787;28;20036;-73
2022/01/21 11:30:37;;;;;;;20.70;3.55;;;5.90;99.90;;;;;;5074814;28;20133;-72
2022/01/21 11:33:03;;;;;;;19.00;2.90;;;6.00;99.90;;;;;;5074570;28;20124;-72
2022/01/21 11:35:29;;;;;;;20.00;2.80;;;6.00;99.90;;;;;;5074437;28;20075;-72
2022/01/21 11:37:57;;;;;;;18.42;3.28;;;6.20;99.90;;;;;;5074326;28;20040;-72
2022/01/21 11:40:22;;;;;;;18.30;2.90;;;6.20;99.90;;;;;;5076262;28;20048;-72
2022/01/21 11:42:50;;;;;;;16.35;2.65;;;6.20;99.90;;;;;;5077981;28;20032;-72
2022/01/21 11:45:32;;;;;;;19.92;2.92;;;6.30;99.90;;;;;;5077967;28;20375;-72
2022/01/21 11:50:49;;;;;;;26.90;3.03;;;6.40;99.90;;;;;;5027862;28;20056;-72
2022/01/21 11:53:35;;;;;;;14.85;3.30;;;6.40;99.90;;;;;;5077919;28;20165;-72
2022/01/21 11:56:06;;;;;;;14.02;2.30;;;6.50;99.90;;;;;;5077561;28;20096;-72
2022/01/21 11:58:32;;;;;;;17.38;2.53;;;6.60;99.90;;;;;;5077833;28;20044;-72
2022/01/21 12:00:57;;;;;;;18.17;3.08;;;6.60;99.90;;;;;;5077694;28;20082;-72
2022/01/21 12:03:23;;;;;;;16.73;2.58;;;6.60;99.90;;;;;;5077737;28;20158;-72
2022/01/21 12:05:52;;;;;;;21.42;2.40;;;6.70;99.90;;;;;;5077605;28;20516;-73
2022/01/21 12:08:43;;;;;;;13.88;2.50;;;6.60;99.90;;;;;;5077543;28;20500;-72
2022/01/21 12:11:31;;;;;;;17.83;2.50;;;6.70;99.90;;;;;;5077587;28;20039;-72
2022/01/21 12:13:57;;;;;;;12.93;2.80;;;6.70;99.90;;;;;;5077813;28;20040;-72
2022/01/21 12:16:50;;;;;;;12.65;2.10;;;6.60;99.90;;;;;;5077390;28;20409;-72
2022/01/21 12:19:27;;;;;;;13.75;2.10;;;6.70;99.90;;;;;;5095602;28;20487;-72
2022/01/21 12:21:54;;;;;;;12.93;1.95;;;6.60;99.90;;;;;;5077254;28;20040;-72
2022/01/21 12:24:51;;;;;;;13.10;2.08;;;6.60;99.90;;;;;;5077337;28;20040;-72
2022/01/21 12:27:18;;;;;;;14.18;2.10;;;6.70;99.90;;;;;;5077213;28;20040;-72
2022/01/21 12:29:43;;;;;;;17.15;2.03;;;6.60;99.90;;;;;;5077100;28;20051;-72
2022/01/21 12:34:57;;;;;;;9.20;1.95;;;6.70;99.90;;;;;;5077087;28;20578;-72
2022/01/21 12:37:26;;;;;;;13.30;2.03;;;6.80;99.90;;;;;;5076770;28;20486;-72
2022/01/21 12:39:52;;;;;;;13.55;1.90;;;6.80;99.90;;;;;;5076990;28;20036;-72
2022/01/21 12:42:25;;;;;;;13.13;1.95;;;6.80;99.90;;;;;;5076884;28;20092;-72
2022/01/21 12:44:52;;;;;;;10.85;1.88;;;6.80;99.90;;;;;;5076866;28;20044;-72
2022/01/21 12:47:27;;;;;;;9.20;1.92;;;6.80;99.90;;;;;;5077026;28;20469;-72
2022/01/21 12:49:55;;;;;;;13.70;1.75;;;6.90;99.90;;;;;;5060076;28;20089;-72
2022/01/21 12:52:43;;;;;;;12.52;1.92;;;6.80;99.90;;;;;;5076429;28;20047;-72
2022/01/21 12:57:55;;;;;;;12.88;2.00;;;6.90;99.90;;;;;;5076558;28;20127;-72
2022/01/21 13:00:20;;;;;;;12.38;1.98;;;6.80;99.90;;;;;;5076431;28;20044;-72
2022/01/21 13:02:51;;;;;;;18.92;2.67;;;6.80;99.90;;;;;;5076580;28;20139;-72
2022/01/21 13:05:20;;;;;;;16.30;2.10;;;6.90;99.90;;;;;;5076811;28;20058;-72
2022/01/21 13:08:10;;;;;;;17.77;2.55;;;6.80;99.90;;;;;;5076307;28;20405;-72
2022/01/21 13:10:37;;;;;;;12.68;1.80;;;6.90;99.90;;;;;;5076430;28;20105;-72
2022/01/21 13:15:52;;;;;;;16.85;2.42;;;6.80;99.90;;;;;;5076510;28;20043;-73
2022/01/21 13:18:28;;;;;;;15.82;2.63;;;6.80;99.90;;;;;;5076529;28;20493;-73
2022/01/21 13:21:00;;;;;;;23.80;3.17;;;6.80;99.90;;;;;;5076184;28;20124;-72
2022/01/21 13:24:01;;;;;;;13.75;2.33;;;6.80;99.90;;;;;;5076283;28;20040;-72
2022/01/21 13:26:36;;;;;;;14.07;2.00;;;6.80;99.90;;;;;;5076251;28;20497;-72
2022/01/21 13:29:04;;;;;;;19.33;2.83;;;6.80;99.90;;;;;;5076018;28;20044;-72
2022/01/21 13:31:51;;;;;;;20.42;2.90;;;6.80;99.90;;;;;;5075965;28;20127;-72
2022/01/21 13:34:25;;;;;;;20.17;2.63;;;6.80;99.90;;;;;;5075148;28;20051;-72
2022/01/21 13:36:54;;;;;;;20.63;2.90;;;6.80;99.90;;;;;;5075769;28;20048;-72
2022/01/21 13:39:22;;;;;;;17.83;2.72;;;6.80;99.90;;;;;;5076067;28;20401;-72
2022/01/21 13:41:53;;;;;;;15.68;2.33;;;6.80;99.90;;;;;;5075694;28;20123;-72
2022/01/21 13:44:31;;;;;;;18.70;2.85;;;6.80;99.90;;;;;;5075789;28;20036;-72
2022/01/21 13:46:59;;;;;;;17.08;3.40;;;6.80;99.90;;;;;;5075883;28;20051;-72
2022/01/21 13:49:26;;;;;;;20.92;3.00;;;6.80;99.90;;;;;;5075650;28;20119;-73
2022/01/21 13:51:54;;;;;;;17.73;2.85;;;6.80;99.90;;;;;;5075577;28;20048;-72
2022/01/21 13:54:41;;;;;;;15.07;2.63;;;6.80;99.90;;;;;;5075568;28;20044;-72
2022/01/21 13:57:07;;;;;;;20.73;3.45;;;6.80;99.90;;;;;;5075509;28;20516;-72
2022/01/21 13:59:39;;;;;;;18.85;2.85;;;6.80;99.90;;;;;;5075752;28;20036;-72